createdAt,value
2022-08-14T00:04:35.322Z,0
2022-08-14T00:10:53.450Z,0
2022-08-14T00:17:15.820Z,0
2022-08-14T00:23:35.793Z,0
2022-08-14T00:29:58.817Z,0
2022-08-14T00:36:34.750Z,0
2022-08-14T00:43:02.986Z,0
2022-08-14T00:49:02.216Z,0
2022-08-14T00:55:24.757Z,0
2022-08-14T01:01:45.160Z,0
2022-08-14T01:08:07.766Z,0
2022-08-14T01:14:28.334Z,0
2022-08-14T01:20:50.977Z,0
2022-08-14T01:27:10.753Z,0
2022-08-14T01:33:39.632Z,0
2022-08-14T01:39:54.376Z,0
2022-08-14T01:46:24.275Z,0
2022-08-14T01:52:58.184Z,0
2022-08-14T01:58:59.780Z,0
2022-08-14T02:05:19.907Z,0
2022-08-14T02:11:42.792Z,0
2022-08-14T02:18:02.725Z,0
2022-08-14T02:24:38.554Z,0
2022-08-14T02:30:45.768Z,0
2022-08-14T02:37:08.776Z,0
2022-08-14T02:43:36.902Z,0
2022-08-14T02:49:55.051Z,0
2022-08-14T02:56:29.810Z,0
2022-08-14T03:02:49.313Z,0
2022-08-14T03:08:54.762Z,0
2022-08-14T03:32:18.675Z,0
2022-08-14T03:39:12.060Z,0
2022-08-14T03:45:18.177Z,0
2022-08-14T03:51:24.781Z,0
2022-08-14T03:57:44.718Z,0
2022-08-14T04:04:08.032Z,0
2022-08-14T04:10:31.810Z,0
2022-08-14T04:16:50.758Z,0
2022-08-14T04:23:15.566Z,0
2022-08-14T04:29:33.773Z,0
2022-08-14T04:35:55.703Z,0
2022-08-14T04:42:16.756Z,5.62
2022-08-14T04:48:40.145Z,5.62
2022-08-14T04:54:59.792Z,5.62
2022-08-14T05:01:19.820Z,5.62
2022-08-14T05:07:46.757Z,11.25
2022-08-14T05:14:17.403Z,11.25
2022-08-14T05:20:33.641Z,11.25
2022-08-14T05:26:45.788Z,11.25
2022-08-14T05:33:08.750Z,16.88
2022-08-14T05:39:28.843Z,16.88
2022-08-14T05:45:51.757Z,16.88
2022-08-14T05:52:11.734Z,16.88
2022-08-14T05:58:41.137Z,16.88
2022-08-14T06:04:54.805Z,22.5
2022-08-14T06:11:20.156Z,22.5
2022-08-14T06:17:38.884Z,22.5
2022-08-14T06:24:02.800Z,22.5
2022-08-14T06:30:22.870Z,28.12
2022-08-14T06:36:45.762Z,28.12
2022-08-14T06:43:06.815Z,28.12
2022-08-14T06:49:30.144Z,28.12
2022-08-14T06:55:53.199Z,28.12
2022-08-14T07:02:13.457Z,28.12
2022-08-14T07:08:32.141Z,28.12
2022-08-14T07:14:58.619Z,33.75
2022-08-14T07:21:14.731Z,33.75
2022-08-14T07:27:37.774Z,33.75
2022-08-14T07:33:57.796Z,33.75
2022-08-14T07:40:22.090Z,39.38
2022-08-14T07:46:40.766Z,39.38
2022-08-14T07:53:03.730Z,39.38
2022-08-14T07:59:26.052Z,45
2022-08-14T08:05:46.731Z,45
2022-08-14T08:12:09.208Z,50.62
2022-08-14T08:18:31.095Z,50.62
2022-08-14T08:24:50.146Z,50.62
2022-08-14T08:31:12.807Z,56.25
2022-08-14T08:37:32.741Z,56.25
2022-08-14T08:43:55.729Z,56.25
2022-08-14T08:50:22.913Z,56.25
2022-08-14T09:14:18.205Z,61.88
2022-08-14T09:20:37.725Z,61.88
2022-08-14T09:27:00.721Z,61.88
2022-08-14T09:33:22.548Z,67.5
2022-08-14T09:39:43.767Z,67.5
2022-08-14T09:46:03.774Z,67.5
2022-08-14T09:52:33.613Z,73.12
2022-08-14T09:58:46.724Z,67.5
2022-08-14T10:05:09.745Z,73.12
2022-08-14T10:11:31.152Z,73.12
2022-08-14T10:17:53.202Z,78.75
2022-08-14T10:24:12.728Z,78.75
2022-08-14T10:30:35.729Z,84.38
2022-08-14T10:37:02.326Z,84.38
2022-08-14T10:43:18.735Z,90
2022-08-14T10:49:38.765Z,90
2022-08-14T10:56:03.672Z,95.62
2022-08-14T11:02:22.392Z,73.12
2022-08-14T11:08:45.549Z,50.62
2022-08-14T11:15:04.725Z,118.12
2022-08-14T11:21:30.169Z,118.12
2022-08-14T11:27:49.026Z,118.12
2022-08-14T11:34:30.134Z,112.5
2022-08-14T11:40:30.795Z,112.5
2022-08-14T11:46:53.725Z,118.12
2022-08-14T11:53:13.754Z,118.12
2022-08-14T11:59:38.497Z,123.75
2022-08-14T12:05:56.729Z,135
2022-08-14T12:12:19.735Z,140.62
2022-08-14T12:18:39.723Z,146.25
2022-08-14T12:25:06.106Z,135
2022-08-14T12:31:22.727Z,56.25
2022-08-14T12:37:45.873Z,61.88
2022-08-14T12:44:05.749Z,157.5
2022-08-14T12:50:28.730Z,157.5
2022-08-14T12:56:48.765Z,157.5
2022-08-14T13:03:11.723Z,135
2022-08-14T13:09:35.799Z,168.75
2022-08-14T13:15:56.150Z,174.38
2022-08-14T13:22:19.694Z,174.38
2022-08-14T13:28:41.409Z,168.75
2022-08-14T13:34:57.736Z,163.12
2022-08-14T13:41:22.865Z,174.38
2022-08-14T13:47:44.966Z,168.75
2022-08-14T13:54:11.447Z,168.75
2022-08-14T14:00:32.472Z,168.75
2022-08-14T14:06:46.727Z,180
2022-08-14T14:13:06.722Z,174.38
2022-08-14T14:19:29.766Z,163.12
2022-08-14T14:25:51.110Z,168.75
2022-08-14T14:32:17.313Z,180
2022-08-14T14:38:32.841Z,168.75
2022-08-14T14:44:56.436Z,163.12
2022-08-14T14:51:15.756Z,146.25
2022-08-14T14:57:38.726Z,129.38
2022-08-14T15:20:08.282Z,95.62
2022-08-14T15:26:31.739Z,157.5
2022-08-14T15:32:50.771Z,112.5
2022-08-14T15:39:10.719Z,106.88
2022-08-14T15:45:33.733Z,95.62
2022-08-14T15:51:53.754Z,101.25
2022-08-14T15:58:16.721Z,78.75
2022-08-14T16:04:36.766Z,78.75
2022-08-14T16:10:59.959Z,90
2022-08-14T16:17:19.724Z,67.5
2022-08-14T16:23:42.756Z,61.88
2022-08-14T16:30:04.019Z,67.5
2022-08-14T16:36:29.976Z,56.25
2022-08-14T16:43:03.730Z,56.25
2022-08-14T16:49:08.713Z,56.25
2022-08-14T16:55:30.380Z,45
2022-08-14T17:01:51.745Z,33.75
2022-08-14T17:08:24.058Z,28.12
2022-08-14T17:14:34.761Z,33.75
2022-08-14T17:21:01.855Z,33.75
2022-08-14T17:27:18.241Z,33.75
2022-08-14T17:33:40.195Z,33.75
2022-08-14T17:40:00.753Z,28.12
2022-08-14T17:46:20.733Z,28.12
2022-08-14T17:52:47.112Z,28.12
2022-08-14T17:59:03.894Z,28.12
2022-08-14T18:06:06.646Z,22.5
2022-08-14T18:11:46.745Z,16.88
2022-08-14T18:18:09.756Z,11.25
2022-08-14T18:24:31.835Z,5.62
2022-08-14T18:30:58.445Z,5.62
2022-08-14T18:37:17.121Z,5.62
2022-08-14T18:43:35.743Z,0
2022-08-14T18:49:55.748Z,0
2022-08-14T18:56:19.811Z,0
2022-08-14T19:02:40.509Z,0
2022-08-14T19:09:01.719Z,0
2022-08-14T19:15:25.666Z,0
2022-08-14T19:21:44.757Z,0
2022-08-14T19:28:04.712Z,0
2022-08-14T19:34:29.569Z,0
2022-08-14T19:40:47.727Z,0
2022-08-14T19:47:11.421Z,0
2022-08-14T19:53:30.747Z,0
2022-08-14T19:59:57.597Z,0
2022-08-14T20:06:13.763Z,0
2022-08-14T20:12:57.310Z,0
2022-08-14T20:18:56.728Z,0
2022-08-14T20:25:19.763Z,0
2022-08-14T20:31:39.716Z,0
2022-08-14T20:38:28.842Z,0
2022-08-14T20:44:28.426Z,0
2022-08-14T20:50:45.719Z,0
2022-08-14T20:57:05.756Z,0
2022-08-14T21:03:28.869Z,0
2022-08-14T21:19:53.653Z,0
2022-08-14T21:26:13.709Z,0
2022-08-14T21:32:47.421Z,0
2022-08-14T21:38:56.778Z,0
2022-08-14T21:45:19.728Z,0
2022-08-14T21:51:52.690Z,0
2022-08-14T21:58:04.186Z,0
2022-08-14T22:20:59.762Z,0
2022-08-14T22:27:21.288Z,0
2022-08-14T22:33:42.891Z,0
2022-08-14T22:40:17.975Z,0
2022-08-14T22:46:25.757Z,0
2022-08-14T22:52:49.128Z,0
2022-08-14T22:59:09.543Z,0
2022-08-14T23:05:34.201Z,0
2022-08-14T23:11:51.735Z,0
2022-08-14T23:18:13.153Z,0
2022-08-14T23:24:34.745Z,0
2022-08-14T23:30:55.187Z,0
2022-08-14T23:37:17.755Z,0
2022-08-14T23:43:37.735Z,0
2022-08-14T23:50:03.957Z,0
2022-08-14T23:56:29.555Z,0
